Time;durP1;ratioP1;P1;durP2;ratioP2;P2;SDS_P1;SDS_P2;PMS_P1;PMS_P2;Temp;Humidity;BMP_temperature;BMP_pressure;BME280_temperature;BME280_humidity;BME280_pressure;Samples;Min_cycle;Max_cycle;Signal;HPM_P1;HPM_P2
2023/10/19 00:01:09;;;;;;;;;;;;;;;7.81;78.72;100939.38;107916;1259;72741;-80
2023/10/19 00:03:37;;;;;;;;;;;;;;;7.86;78.68;100938.17;105566;1259;125373;-80
2023/10/19 00:06:05;;;;;;;;;;;;;;;7.91;78.69;100938.05;105804;1260;62204;-79
2023/10/19 00:08:44;;;;;;;;;;;;;;;7.98;78.62;100936.55;108220;1260;125129;-79
2023/10/19 00:11:21;;;;;;;;;;;;;;;8.02;78.58;100936.36;105913;1260;65425;-79
2023/10/19 00:13:50;;;;;;;;;;;;;;;8.06;78.41;100938.45;105651;1264;125870;-78
2023/10/19 00:16:19;;;;;;;;;;;;;;;8.08;78.49;100934.66;105775;1259;62137;-78
2023/10/19 00:18:49;;;;;;;;;;;;;;;8.08;78.37;100928.02;105730;1259;62290;-79
2023/10/19 00:23:49;;;;;;;;;;;;;;;8.07;78.30;100924.64;105756;1258;64967;-79
2023/10/19 00:26:19;;;;;;;;;;;;;;;8.10;78.36;100921.64;105549;1260;125023;-79
2023/10/19 00:28:49;;;;;;;;;;;;;;;8.15;78.39;100918.66;105702;1259;62182;-79
2023/10/19 00:31:16;;;;;;;;;;;;;;;8.19;78.30;100917.43;105747;1262;62009;-79
2023/10/19 00:33:43;;;;;;;;;;;;;;;8.21;78.29;100912.08;108708;1257;124522;-79
2023/10/19 00:36:12;;;;;;;;;;;;;;;8.23;78.16;100908.65;108970;1258;66475;-80
2023/10/19 00:38:40;;;;;;;;;;;;;;;8.23;78.05;100907.95;108707;1258;124908;-80
2023/10/19 00:43:42;;;;;;;;;;;;;;;8.19;77.95;100901.87;108627;1259;124500;-80
2023/10/19 00:48:51;;;;;;;;;;;;;;;8.16;77.99;100899.51;105849;1262;65553;-79
2023/10/19 00:54:10;;;;;;;;;;;;;;;8.11;78.09;100890.73;105826;1262;61985;-78
2023/10/19 00:56:37;;;;;;;;;;;;;;;8.09;78.11;100891.91;105587;1262;125091;-79
2023/10/19 00:59:30;;;;;;;;;;;;;;;8.09;78.08;100886.98;105768;1263;75585;-78
2023/10/19 01:01:54;;;;;;;;;;;;;;;8.10;78.20;100884.05;105601;1259;125093;-78
2023/10/19 01:04:23;;;;;;;;;;;;;;;8.11;78.19;100882.01;107526;1259;72753;-80
2023/10/19 01:07:11;;;;;;;;;;;;;;;8.13;78.26;100881.02;105684;1262;61980;-78
2023/10/19 01:09:38;;;;;;;;;;;;;;;8.13;78.28;100875.98;105539;1260;124916;-78
2023/10/19 01:15:13;;;;;;;;;;;;;;;8.16;78.25;100873.98;105624;1260;125368;-79
2023/10/19 01:17:40;;;;;;;;;;;;;;;8.17;78.18;100872.06;105738;1260;72710;-78
2023/10/19 01:20:21;;;;;;;;;;;;;;;8.15;78.17;100871.65;105612;1258;125240;-78
2023/10/19 01:22:49;;;;;;;;;;;;;;;8.13;78.11;100866.85;105553;1258;62169;-78
2023/10/19 01:25:16;;;;;;;;;;;;;;;8.08;78.00;100864.42;105621;1258;75923;-79
2023/10/19 01:27:43;;;;;;;;;;;;;;;8.05;78.02;100868.31;105590;1259;124848;-79
2023/10/19 01:30:09;;;;;;;;;;;;;;;8.01;78.08;100857.69;105771;1259;71373;-79
2023/10/19 01:32:37;;;;;;;;;;;;;;;7.98;78.22;100856.00;105749;1259;126921;-76
2023/10/19 01:35:04;;;;;;;;;;;;;;;7.95;78.05;100850.49;105659;1259;62087;-76
2023/10/19 01:37:30;;;;;;;;;;;;;;;7.91;78.29;100844.23;105680;1260;125635;-76
2023/10/19 01:39:57;;;;;;;;;;;;;;;7.87;78.16;100840.73;105876;1259;64982;-76
2023/10/19 01:42:23;;;;;;;;;;;;;;;7.84;78.13;100837.84;105932;1260;72660;-77
2023/10/19 01:44:50;;;;;;;;;;;;;;;7.81;78.10;100838.23;105623;1261;125415;-76
2023/10/19 01:47:17;;;;;;;;;;;;;;;7.78;78.11;100833.59;105734;1262;61974;-76
2023/10/19 01:49:48;;;;;;;;;;;;;;;7.75;78.09;100827.01;105794;1259;125277;-76
2023/10/19 01:52:15;;;;;;;;;;;;;;;7.72;78.11;100823.73;105808;1259;66340;-76
2023/10/19 01:54:42;;;;;;;;;;;;;;;7.67;78.16;100820.94;105836;1259;72708;-76
2023/10/19 01:57:08;;;;;;;;;;;;;;;7.64;78.13;100815.42;105608;1259;125551;-76
2023/10/19 01:59:35;;;;;;;;;;;;;;;7.61;78.19;100812.35;105799;1262;61973;-76
2023/10/19 02:02:02;;;;;;;;;;;;;;;7.60;78.28;100811.77;105624;1260;126084;-76
2023/10/19 02:04:29;;;;;;;;;;;;;;;7.59;78.29;100806.51;105712;1257;64672;-76
2023/10/19 02:07:00;;;;;;;;;;;;;;;7.58;78.31;100806.98;105681;1260;71446;-76
2023/10/19 02:09:28;;;;;;;;;;;;;;;7.56;78.31;100810.41;105608;1260;125913;-76
2023/10/19 02:11:56;;;;;;;;;;;;;;;7.53;78.47;100811.70;105754;1261;62063;-76
2023/10/19 02:14:24;;;;;;;;;;;;;;;7.52;78.48;100807.12;106834;1259;124893;-76
2023/10/19 02:16:52;;;;;;;;;;;;;;;7.52;78.41;100803.27;108913;1259;65777;-77
2023/10/19 02:19:22;;;;;;;;;;;;;;;7.51;78.48;100801.66;108651;1258;125215;-77
2023/10/19 02:21:50;;;;;;;;;;;;;;;7.51;78.52;100799.41;105772;1258;62097;-76
2023/10/19 02:24:17;;;;;;;;;;;;;;;7.52;78.59;100799.09;105668;1259;62015;-78
2023/10/19 02:26:44;;;;;;;;;;;;;;;7.57;78.81;100790.73;105732;1257;125764;-76
2023/10/19 02:29:11;;;;;;;;;;;;;;;7.60;78.69;100787.33;105782;1259;66239;-78
2023/10/19 02:31:43;;;;;;;;;;;;;;;7.61;78.71;100785.79;105686;1258;125684;-78
2023/10/19 02:34:10;;;;;;;;;;;;;;;7.63;78.70;100786.90;105777;1261;62521;-76
2023/10/19 02:36:40;;;;;;;;;;;;;;;7.67;78.81;100784.45;105834;1260;62252;-77
2023/10/19 02:39:07;;;;;;;;;;;;;;;7.72;78.81;100779.05;105649;1261;125092;-78
2023/10/19 02:41:43;;;;;;;;;;;;;;;7.76;78.71;100784.77;105829;1259;64540;-77
2023/10/19 02:44:19;;;;;;;;;;;;;;;7.77;78.62;100783.06;105743;1262;125534;-76
2023/10/19 02:46:46;;;;;;;;;;;;;;;7.79;78.66;100781.91;105795;1261;63528;-76
2023/10/19 02:49:22;;;;;;;;;;;;;;;7.79;78.72;100780.89;105757;1262;61990;-76
2023/10/19 02:51:49;;;;;;;;;;;;;;;7.80;78.71;100778.11;105727;1259;74365;-76
2023/10/19 02:54:20;;;;;;;;;;;;;;;7.83;78.90;100782.74;105828;1262;65289;-76
2023/10/19 02:56:52;;;;;;;;;;;;;;;7.85;78.84;100777.94;105554;1262;124488;-76
2023/10/19 02:59:22;;;;;;;;;;;;;;;7.86;78.85;100771.33;105704;1259;61992;-76
2023/10/19 03:01:52;;;;;;;;;;;;;;;7.88;78.86;100768.79;105744;1262;124768;-75
2023/10/19 03:04:19;;;;;;;;;;;;;;;7.85;78.72;100769.36;105856;1261;74133;-77
2023/10/19 03:06:47;;;;;;;;;;;;;;;7.82;78.81;100765.77;105809;1260;65047;-76
2023/10/19 03:09:23;;;;;;;;;;;;;;;7.82;78.84;100766.48;105627;1260;124839;-76
2023/10/19 03:11:54;;;;;;;;;;;;;;;7.80;78.83;100762.39;105683;1263;62073;-75
2023/10/19 03:14:24;;;;;;;;;;;;;;;7.79;78.91;100758.85;105591;1259;124541;-76
2023/10/19 03:16:52;;;;;;;;;;;;;;;7.79;78.97;100755.36;105817;1260;76097;-76
2023/10/19 03:19:20;;;;;;;;;;;;;;;7.78;79.04;100752.19;105819;1259;66570;-77
2023/10/19 03:21:49;;;;;;;;;;;;;;;7.77;79.09;100744.81;105600;1259;124381;-81
2023/10/19 03:27:33;;;;;;;;;;;;;;;7.74;79.11;100734.92;105799;1259;124664;-82
2023/10/19 03:30:00;;;;;;;;;;;;;;;7.71;79.00;100731.33;105817;1257;75487;-82
2023/10/19 03:32:28;;;;;;;;;;;;;;;7.68;79.04;100725.60;105591;1259;124789;-81
2023/10/19 03:34:55;;;;;;;;;;;;;;;7.65;79.06;100721.48;106346;1260;72007;-83
2023/10/19 03:37:24;;;;;;;;;;;;;;;7.61;79.10;100723.27;106281;1259;124504;-80
2023/10/19 03:39:51;;;;;;;;;;;;;;;7.57;79.12;100721.39;106497;1260;62184;-82
2023/10/19 03:42:20;;;;;;;;;;;;;;;7.54;79.17;100716.71;106411;1260;75329;-82
2023/10/19 03:47:18;;;;;;;;;;;;;;;7.44;79.12;100716.36;106450;1262;72457;-79
2023/10/19 03:49:51;;;;;;;;;;;;;;;7.38;79.13;100713.00;105592;1259;126168;-77
2023/10/19 03:54:44;;;;;;;;;;;;;;;7.23;79.18;100701.60;105751;1262;75456;-78
2023/10/19 03:57:12;;;;;;;;;;;;;;;7.17;79.29;100698.60;105674;1259;126079;-77
2023/10/19 03:59:39;;;;;;;;;;;;;;;7.14;79.35;100697.08;105731;1262;72662;-78
2023/10/19 04:02:10;;;;;;;;;;;;;;;7.11;79.46;100696.81;105759;1259;126397;-77
2023/10/19 04:04:39;;;;;;;;;;;;;;;7.10;79.50;100696.59;105822;1262;60758;-77
2023/10/19 04:07:20;;;;;;;;;;;;;;;7.09;79.55;100700.89;105807;1262;75351;-78
2023/10/19 04:09:57;;;;;;;;;;;;;;;7.07;79.61;100707.45;106458;1259;65023;-79
2023/10/19 04:12:24;;;;;;;;;;;;;;;7.06;79.69;100708.82;106243;1259;71215;-79
2023/10/19 04:14:50;;;;;;;;;;;;;;;7.07;79.73;100706.05;106315;1258;125302;-82
2023/10/19 04:17:20;;;;;;;;;;;;;;;7.05;79.64;100706.17;106330;1259;60009;-78
2023/10/19 04:19:51;;;;;;;;;;;;;;;7.02;79.63;100700.50;106318;1259;125892;-78
2023/10/19 04:22:23;;;;;;;;;;;;;;;7.01;79.68;100699.56;106218;1258;64992;-78
2023/10/19 04:24:50;;;;;;;;;;;;;;;7.00;79.78;100700.59;106295;1259;72635;-78
2023/10/19 04:27:17;;;;;;;;;;;;;;;7.00;79.79;100696.71;106269;1259;125616;-77
2023/10/19 04:29:45;;;;;;;;;;;;;;;7.00;79.83;100689.21;106277;1259;62092;-77
2023/10/19 04:32:14;;;;;;;;;;;;;;;6.99;79.77;100685.19;106241;1259;125485;-78
2023/10/19 04:34:41;;;;;;;;;;;;;;;6.98;79.84;100687.77;106430;1260;65520;-76
2023/10/19 04:37:12;;;;;;;;;;;;;;;6.96;79.75;100681.93;105677;1262;72922;-75
2023/10/19 04:39:39;;;;;;;;;;;;;;;6.92;79.72;100683.52;105559;1260;125107;-78
2023/10/19 04:42:06;;;;;;;;;;;;;;;6.87;79.66;100675.45;105844;1259;62070;-77
2023/10/19 04:44:34;;;;;;;;;;;;;;;6.81;79.78;100673.13;105598;1259;125176;-78
2023/10/19 04:47:01;;;;;;;;;;;;;;;6.77;79.90;100672.98;105874;1260;65953;-77
2023/10/19 04:49:28;;;;;;;;;;;;;;;6.74;80.00;100670.98;105528;1264;125195;-76
2023/10/19 04:51:54;;;;;;;;;;;;;;;6.74;80.20;100669.59;107389;1259;62271;-76
2023/10/19 04:54:21;;;;;;;;;;;;;;;6.74;80.40;100668.02;105772;1260;62051;-77
2023/10/19 04:56:48;;;;;;;;;;;;;;;6.76;80.51;100664.92;105759;1259;125868;-77
2023/10/19 04:59:14;;;;;;;;;;;;;;;6.76;80.63;100663.52;105777;1262;66391;-77
2023/10/19 05:01:41;;;;;;;;;;;;;;;6.75;80.70;100663.84;105622;1258;125205;-78
2023/10/19 05:04:08;;;;;;;;;;;;;;;6.75;80.81;100667.00;105825;1260;62168;-80
2023/10/19 05:06:34;;;;;;;;;;;;;;;6.74;80.73;100665.20;106435;1258;61888;-78
2023/10/19 05:09:03;;;;;;;;;;;;;;;6.72;80.65;100668.80;105698;1260;126107;-77
2023/10/19 05:11:29;;;;;;;;;;;;;;;6.76;80.87;100672.95;106753;1259;66355;-77
2023/10/19 05:13:56;;;;;;;;;;;;;;;6.81;80.88;100678.23;105803;1259;125089;-80
2023/10/19 05:16:23;;;;;;;;;;;;;;;6.85;80.93;100673.65;106464;1259;62167;-79
2023/10/19 05:18:49;;;;;;;;;;;;;;;6.89;80.86;100678.68;106417;1258;62054;-79
2023/10/19 05:21:16;;;;;;;;;;;;;;;6.93;80.90;100679.36;106203;1262;125703;-78
2023/10/19 05:23:42;;;;;;;;;;;;;;;6.98;81.07;100676.23;106470;1259;64376;-79
2023/10/19 05:26:09;;;;;;;;;;;;;;;7.05;81.17;100674.58;106635;1262;125626;-80
2023/10/19 05:28:35;;;;;;;;;;;;;;;7.06;81.08;100673.39;106990;1262;62301;-78
2023/10/19 05:31:04;;;;;;;;;;;;;;;7.05;80.85;100673.34;107078;1259;62156;-78
2023/10/19 05:33:30;;;;;;;;;;;;;;;7.01;80.74;100674.27;106539;1260;125065;-77
2023/10/19 05:35:57;;;;;;;;;;;;;;;7.00;80.81;100676.52;106553;1264;63749;-79
2023/10/19 05:38:24;;;;;;;;;;;;;;;6.98;80.84;100678.54;106674;1259;125022;-78
2023/10/19 05:40:52;;;;;;;;;;;;;;;7.02;80.98;100679.36;106777;1259;60393;-76
2023/10/19 05:43:18;;;;;;;;;;;;;;;7.03;81.02;100678.02;106191;1259;62139;-82
2023/10/19 05:45:45;;;;;;;;;;;;;;;7.07;81.17;100676.08;106694;1258;125330;-82
2023/10/19 05:48:11;;;;;;;;;;;;;;;7.11;81.11;100676.23;106985;1258;65144;-82
2023/10/19 05:50:38;;;;;;;;;;;;;;;7.14;81.12;100677.73;106576;1259;124912;-81
2023/10/19 05:53:05;;;;;;;;;;;;;;;7.17;81.25;100679.74;106720;1258;60539;-82
2023/10/19 05:55:32;;;;;;;;;;;;;;;7.22;81.18;100678.89;106680;1259;125802;-82
2023/10/19 05:57:58;;;;;;;;;;;;;;;7.25;81.20;100683.03;106676;1259;75485;-80
2023/10/19 06:00:25;;;;;;;;;;;;;;;7.30;81.24;100684.61;105901;1262;65122;-82
2023/10/19 06:02:52;;;;;;;;;;;;;;;7.37;81.36;100680.31;106194;1258;125762;-82
2023/10/19 06:05:19;;;;;;;;;;;;;;;7.41;81.28;100671.20;106519;1261;62077;-81
2023/10/19 06:07:46;;;;;;;;;;;;;;;7.45;81.26;100676.06;106220;1259;125137;-81
2023/10/19 06:10:18;;;;;;;;;;;;;;;7.48;81.23;100675.82;106403;1259;74849;-81
2023/10/19 06:12:45;;;;;;;;;;;;;;;7.53;81.29;100678.65;106388;1260;66102;-81
2023/10/19 06:15:12;;;;;;;;;;;;;;;7.60;81.38;100679.94;106202;1259;125277;-80
2023/10/19 06:17:39;;;;;;;;;;;;;;;7.68;81.34;100679.16;106420;1262;62082;-80
2023/10/19 06:20:08;;;;;;;;;;;;;;;7.75;81.38;100684.80;108520;1259;125897;-79
2023/10/19 06:22:35;;;;;;;;;;;;;;;7.77;81.19;100688.39;108925;1260;74168;-78
2023/10/19 06:25:04;;;;;;;;;;;;;;;7.77;80.98;100683.33;108016;1260;66470;-78
2023/10/19 06:27:31;;;;;;;;;;;;;;;7.77;80.92;100692.04;108775;1259;125357;-79
2023/10/19 06:29:58;;;;;;;;;;;;;;;7.79;80.99;100691.27;106418;1262;61974;-79
2023/10/19 06:32:24;;;;;;;;;;;;;;;7.87;81.04;100692.23;106174;1258;125305;-79
2023/10/19 06:34:51;;;;;;;;;;;;;;;7.90;80.80;100691.10;106426;1258;74204;-78
2023/10/19 06:37:18;;;;;;;;;;;;;;;7.90;80.79;100690.94;106430;1262;66287;-78
2023/10/19 06:39:44;;;;;;;;;;;;;;;7.88;80.66;100698.75;106377;1262;125226;-79
2023/10/19 06:42:13;;;;;;;;;;;;;;;7.85;80.53;100702.98;106349;1259;62031;-78
2023/10/19 06:44:42;;;;;;;;;;;;;;;7.80;80.45;100699.67;106274;1258;124951;-78
2023/10/19 06:47:08;;;;;;;;;;;;;;;7.81;80.57;100703.70;106684;1258;76005;-79
2023/10/19 06:49:35;;;;;;;;;;;;;;;7.82;80.54;100704.81;106362;1259;127463;-78
2023/10/19 06:52:04;;;;;;;;;;;;;;;7.84;80.45;100706.08;106379;1259;71418;-78
2023/10/19 06:54:32;;;;;;;;;;;;;;;7.87;80.44;100703.58;106340;1258;60110;-79
2023/10/19 06:56:58;;;;;;;;;;;;;;;7.87;80.30;100706.55;106190;1257;125331;-79
2023/10/19 06:59:25;;;;;;;;;;;;;;;7.88;80.26;100700.64;106235;1264;74510;-79
2023/10/19 07:01:52;;;;;;;;;;;;;;;7.91;80.27;100704.11;106284;1259;125365;-78
2023/10/19 07:04:19;;;;;;;;;;;;;;;7.93;79.83;100702.77;106289;1259;75810;-78
2023/10/19 07:06:47;;;;;;;;;;;;;;;7.93;79.87;100702.94;106445;1258;60112;-78
2023/10/19 07:09:15;;;;;;;;;;;;;;;7.97;79.67;100705.33;106247;1258;125573;-78
2023/10/19 07:11:44;;;;;;;;;;;;;;;7.99;79.77;100699.28;106392;1258;76003;-78
2023/10/19 07:14:12;;;;;;;;;;;;;;;8.08;79.76;100696.95;106329;1265;125566;-77
2023/10/19 07:16:42;;;;;;;;;;;;;;;8.11;79.63;100696.73;106221;1259;71240;-78
2023/10/19 07:19:09;;;;;;;;;;;;;;;8.19;79.73;100692.98;106292;1262;62095;-78
2023/10/19 07:21:37;;;;;;;;;;;;;;;8.25;79.51;100691.95;106176;1260;125092;-78
2023/10/19 07:24:09;;;;;;;;;;;;;;;8.28;79.41;100693.98;106335;1260;74179;-78
2023/10/19 07:26:43;;;;;;;;;;;;;;;8.35;79.33;100693.50;106425;1259;125255;-82
2023/10/19 07:29:10;;;;;;;;;;;;;;;8.42;79.09;100695.15;106385;1260;71797;-82
2023/10/19 07:31:36;;;;;;;;;;;;;;;8.47;78.97;100688.88;106243;1259;125209;-78
2023/10/19 07:34:03;;;;;;;;;;;;;;;8.55;78.99;100690.88;106423;1258;62238;-78
2023/10/19 07:36:31;;;;;;;;;;;;;;;8.60;78.70;100691.55;106365;1262;75471;-78
2023/10/19 07:38:57;;;;;;;;;;;;;;;8.67;78.64;100682.14;105663;1262;125053;-77
2023/10/19 07:41:24;;;;;;;;;;;;;;;8.71;78.31;100679.14;105751;1260;71232;-77
2023/10/19 07:43:50;;;;;;;;;;;;;;;8.75;78.16;100680.66;106253;1259;124655;-79
2023/10/19 07:46:17;;;;;;;;;;;;;;;8.81;77.97;100679.44;106359;1258;62179;-77
2023/10/19 07:48:43;;;;;;;;;;;;;;;8.83;77.59;100677.40;105835;1262;73809;-78
2023/10/19 07:51:11;;;;;;;;;;;;;;;8.84;77.59;100674.10;105556;1259;124763;-78
2023/10/19 07:53:37;;;;;;;;;;;;;;;8.89;77.50;100669.02;105678;1260;72701;-78
2023/10/19 07:56:04;;;;;;;;;;;;;;;8.91;77.48;100659.09;105593;1259;125306;-79
2023/10/19 07:58:31;;;;;;;;;;;;;;;9.01;77.40;100665.33;106372;1259;62010;-79
2023/10/19 08:00:58;;;;;;;;;;;;;;;9.04;77.10;100665.77;106352;1258;75500;-79
2023/10/19 08:03:25;;;;;;;;;;;;;;;9.09;77.01;100660.17;106324;1260;125093;-78
2023/10/19 08:05:52;;;;;;;;;;;;;;;9.14;76.85;100660.66;106284;1260;72287;-78
2023/10/19 08:08:19;;;;;;;;;;;;;;;9.17;76.72;100657.91;106238;1260;125668;-78
2023/10/19 08:10:47;;;;;;;;;;;;;;;9.21;76.60;100655.77;106340;1259;61886;-78
2023/10/19 08:13:13;;;;;;;;;;;;;;;9.24;76.46;100652.16;105690;1260;75456;-79
2023/10/19 08:15:40;;;;;;;;;;;;;;;9.27;76.32;100649.13;106261;1258;125783;-79
2023/10/19 08:18:07;;;;;;;;;;;;;;;9.28;76.27;100651.94;106410;1259;71995;-79
2023/10/19 08:20:36;;;;;;;;;;;;;;;9.33;76.20;100647.54;106172;1259;125996;-78
2023/10/19 08:23:05;;;;;;;;;;;;;;;9.39;76.24;100647.52;106377;1258;61987;-78
2023/10/19 08:25:32;;;;;;;;;;;;;;;9.47;76.18;100647.76;106169;1262;125562;-79
2023/10/19 08:27:59;;;;;;;;;;;;;;;9.53;75.96;100644.61;106783;1260;66168;-78
2023/10/19 08:30:26;;;;;;;;;;;;;;;9.53;75.60;100646.00;106282;1260;72616;-78
2023/10/19 08:32:53;;;;;;;;;;;;;;;9.51;75.45;100645.05;105634;1259;124636;-78
2023/10/19 08:35:26;;;;;;;;;;;;;;;9.53;75.43;100642.48;105926;1262;62037;-78
2023/10/19 08:37:53;;;;;;;;;;;;;;;9.57;75.37;100638.40;105688;1260;124454;-78
2023/10/19 08:40:19;;;;;;;;;;;;;;;9.64;75.24;100638.92;105749;1259;66267;-78
2023/10/19 08:42:46;;;;;;;;;;;;;;;9.68;75.15;100633.41;106353;1260;73771;-76
2023/10/19 08:45:13;;;;;;;;;;;;;;;9.76;75.23;100625.22;106120;1258;124614;-82
2023/10/19 08:47:59;;;;;;;;;;;;;;;9.88;75.09;100617.83;106440;1258;62509;-80
2023/10/19 08:50:26;;;;;;;;;;;;;;;9.98;74.70;100618.95;106251;1265;124406;-78
2023/10/19 08:52:53;;;;;;;;;;;;;;;9.94;74.11;100618.33;106423;1258;66216;-78
2023/10/19 08:55:20;;;;;;;;;;;;;;;9.96;73.99;100619.23;106345;1259;71814;-79
2023/10/19 08:57:50;;;;;;;;;;;;;;;10.01;74.04;100616.05;106196;1259;124885;-78
2023/10/19 09:00:18;;;;;;;;;;;;;;;10.07;73.86;100607.96;106339;1259;61433;-78
2023/10/19 09:02:45;;;;;;;;;;;;;;;10.13;73.67;100604.43;106806;1259;125228;-79
2023/10/19 09:08:06;;;;;;;;;;;;;;;10.19;73.42;100601.24;106168;1258;125358;-79
2023/10/19 09:10:36;;;;;;;;;;;;;;;10.23;73.38;100598.36;105649;1260;62212;-78
2023/10/19 09:13:04;;;;;;;;;;;;;;;10.24;73.08;100599.43;106374;1262;62027;-79
2023/10/19 09:15:32;;;;;;;;;;;;;;;10.20;72.92;100599.69;106392;1260;124489;-82
2023/10/19 09:18:18;;;;;;;;;;;;;;;10.16;72.62;100598.20;106445;1259;64812;-81
2023/10/19 09:21:07;;;;;;;;;;;;;;;10.07;72.62;100594.65;106206;1261;124412;-80
2023/10/19 09:23:34;;;;;;;;;;;;;;;10.05;72.72;100591.26;106418;1260;62081;-81
2023/10/19 09:26:03;;;;;;;;;;;;;;;10.09;72.73;100589.61;106401;1260;124786;-80
2023/10/19 09:28:33;;;;;;;;;;;;;;;10.11;72.64;100583.34;106464;1258;75598;-81
2023/10/19 09:31:00;;;;;;;;;;;;;;;10.15;72.65;100577.46;106403;1260;65309;-81
2023/10/19 09:33:26;;;;;;;;;;;;;;;10.18;72.69;100575.98;106329;1262;124380;-81
2023/10/19 09:35:56;;;;;;;;;;;;;;;10.27;72.64;100574.61;106431;1259;60025;-81
2023/10/19 09:38:22;;;;;;;;;;;;;;;10.36;72.49;100571.33;106717;1258;124415;-82
2023/10/19 09:40:49;;;;;;;;;;;;;;;10.42;72.43;100570.41;106551;1258;74966;-81
2023/10/19 09:43:30;;;;;;;;;;;;;;;10.52;72.43;100566.07;106396;1259;65044;-79
2023/10/19 09:46:00;;;;;;;;;;;;;;;10.67;72.49;100563.78;106212;1258;73395;-78
2023/10/19 09:48:26;;;;;;;;;;;;;;;10.80;72.32;100559.66;107197;1259;60176;-78
2023/10/19 09:50:55;;;;;;;;;;;;;;;10.85;71.66;100559.23;106234;1259;126034;-78
2023/10/19 09:53:22;;;;;;;;;;;;;;;10.74;71.16;100556.90;106455;1262;75446;-78
2023/10/19 09:55:49;;;;;;;;;;;;;;;10.69;70.96;100553.11;106129;1259;125484;-78
2023/10/19 09:58:16;;;;;;;;;;;;;;;10.62;70.70;100554.17;106377;1259;71342;-78
2023/10/19 10:00:44;;;;;;;;;;;;;;;10.56;70.63;100554.76;106439;1260;62117;-78
2023/10/19 10:03:30;;;;;;;;;;;;;;;10.60;70.66;100550.63;106310;1260;125381;-78
2023/10/19 10:05:57;;;;;;;;;;;;;;;10.69;70.51;100543.98;106318;1260;76211;-78
2023/10/19 10:08:24;;;;;;;;;;;;;;;10.73;70.28;100541.60;106136;1260;124782;-78
2023/10/19 10:10:51;;;;;;;;;;;;;;;10.80;70.05;100537.36;106304;1262;71414;-78
2023/10/19 10:13:38;;;;;;;;;;;;;;;10.80;69.89;100532.80;106324;1264;62061;-78
2023/10/19 10:16:04;;;;;;;;;;;;;;;10.79;69.56;100528.75;106297;1262;60965;-78
2023/10/19 10:18:32;;;;;;;;;;;;;;;10.78;69.46;100528.90;106350;1263;74403;-79
2023/10/19 10:21:04;;;;;;;;;;;;;;;10.76;69.35;100525.70;106212;1264;125115;-82
2023/10/19 10:23:34;;;;;;;;;;;;;;;10.77;69.37;100520.63;105751;1262;72932;-81
2023/10/19 10:26:04;;;;;;;;;;;;;;;10.86;69.38;100518.00;105672;1260;124719;-81
2023/10/19 10:28:30;;;;;;;;;;;;;;;10.93;69.26;100515.16;105912;1260;62506;-79
2023/10/19 10:31:07;;;;;;;;;;;;;;;10.92;68.77;100507.59;105843;1262;75484;-79
2023/10/19 10:33:37;;;;;;;;;;;;;;;10.78;68.32;100505.22;106273;1262;124861;-79
2023/10/19 10:36:07;;;;;;;;;;;;;;;10.65;68.13;100502.13;106289;1265;72530;-78
2023/10/19 10:38:35;;;;;;;;;;;;;;;10.54;67.98;100496.63;106120;1257;125278;-78
2023/10/19 10:41:02;;;;;;;;;;;;;;;10.45;68.07;100496.45;106402;1260;62059;-78
2023/10/19 10:43:28;;;;;;;;;;;;;;;10.46;68.13;100493.30;106263;1260;76436;-78
2023/10/19 10:46:05;;;;;;;;;;;;;;;10.42;68.13;100487.08;105595;1259;124856;-78
2023/10/19 10:48:32;;;;;;;;;;;;;;;10.40;68.59;100484.05;105710;1258;72690;-78
2023/10/19 10:50:58;;;;;;;;;;;;;;;10.29;68.58;100483.27;105610;1262;125105;-78
2023/10/19 10:53:26;;;;;;;;;;;;;;;10.11;68.86;100481.65;105861;1262;62069;-78
2023/10/19 10:55:53;;;;;;;;;;;;;;;9.93;69.05;100481.05;105582;1260;124852;-79
2023/10/19 10:58:20;;;;;;;;;;;;;;;9.82;69.43;100478.86;105714;1261;65158;-79
2023/10/19 11:00:56;;;;;;;;;;;;;;;9.80;69.57;100477.95;105666;1261;72702;-79
2023/10/19 11:03:25;;;;;;;;;;;;;;;9.66;69.60;100473.77;105537;1260;124935;-78
2023/10/19 11:05:54;;;;;;;;;;;;;;;9.57;69.76;100477.04;105928;1260;62156;-78
2023/10/19 11:08:20;;;;;;;;;;;;;;;9.46;69.91;100466.10;105705;1260;124603;-78
2023/10/19 11:10:47;;;;;;;;;;;;;;;9.41;69.95;100471.93;105824;1260;66376;-78
2023/10/19 11:13:17;;;;;;;;;;;;;;;9.33;69.92;100471.21;105781;1260;72677;-78
2023/10/19 11:16:03;;;;;;;;;;;;;;;9.28;70.09;100467.75;106518;1260;124223;-78
2023/10/19 11:18:30;;;;;;;;;;;;;;;9.25;70.15;100460.84;106269;1260;60158;-78
2023/10/19 11:20:59;;;;;;;;;;;;;;;9.22;70.02;100463.05;106322;1263;124258;-78
2023/10/19 11:23:38;;;;;;;;;;;;;;;9.18;70.03;100458.89;107691;1262;66087;-78
2023/10/19 11:26:05;;;;;;;;;;;;;;;9.18;70.18;100453.82;106361;1262;124463;-77
2023/10/19 11:28:33;;;;;;;;;;;;;;;9.22;70.24;100452.53;105714;1262;62203;-80
2023/10/19 11:31:12;;;;;;;;;;;;;;;9.16;70.04;100454.83;108895;1260;60233;-78
2023/10/19 11:33:39;;;;;;;;;;;;;;;9.11;70.19;100455.05;108143;1262;125175;-78
2023/10/19 11:36:06;;;;;;;;;;;;;;;9.11;70.09;100452.95;106352;1264;65072;-79
2023/10/19 11:38:33;;;;;;;;;;;;;;;9.10;70.06;100444.17;105602;1260;124604;-77
2023/10/19 11:40:59;;;;;;;;;;;;;;;9.10;69.99;100443.12;105705;1262;62043;-78
2023/10/19 11:43:26;;;;;;;;;;;;;;;9.08;70.07;100443.77;106301;1258;62520;-79
2023/10/19 11:45:53;;;;;;;;;;;;;;;9.07;70.03;100444.79;106133;1260;124206;-79
2023/10/19 11:48:19;;;;;;;;;;;;;;;9.10;70.18;100441.19;106379;1258;64778;-78
2023/10/19 11:50:47;;;;;;;;;;;;;;;9.12;69.90;100441.42;106115;1260;124370;-79
2023/10/19 11:53:14;;;;;;;;;;;;;;;9.11;69.84;100444.04;105807;1262;62081;-78
2023/10/19 11:55:41;;;;;;;;;;;;;;;9.07;69.42;100443.73;105610;1258;124628;-81
2023/10/19 11:58:13;;;;;;;;;;;;;;;8.97;69.43;100439.45;105868;1260;75603;-82
2023/10/19 12:00:43;;;;;;;;;;;;;;;9.02;69.61;100443.27;106080;1261;65142;-81
2023/10/19 12:03:13;;;;;;;;;;;;;;;9.06;69.55;100445.45;105775;1263;125605;-81
2023/10/19 12:05:42;;;;;;;;;;;;;;;9.04;69.56;100449.27;108093;1258;62177;-81
2023/10/19 12:08:08;;;;;;;;;;;;;;;9.03;69.43;100447.65;106385;1262;124953;-81
2023/10/19 12:10:35;;;;;;;;;;;;;;;8.91;69.25;100448.59;106449;1262;76036;-81
2023/10/19 12:13:08;;;;;;;;;;;;;;;8.81;69.39;100441.13;106466;1262;64930;-81
2023/10/19 12:15:35;;;;;;;;;;;;;;;8.78;69.56;100438.08;106199;1263;126128;-83
2023/10/19 12:18:02;;;;;;;;;;;;;;;8.84;69.77;100439.45;106413;1262;62060;-81
2023/10/19 12:20:31;;;;;;;;;;;;;;;8.88;69.70;100440.09;106326;1262;125004;-81
2023/10/19 12:22:58;;;;;;;;;;;;;;;8.91;69.63;100442.42;106325;1264;75504;-81
2023/10/19 12:25:31;;;;;;;;;;;;;;;8.97;69.77;100438.58;106336;1260;66616;-81
2023/10/19 12:27:59;;;;;;;;;;;;;;;9.11;69.90;100436.67;106469;1260;72766;-81
2023/10/19 12:30:31;;;;;;;;;;;;;;;9.24;69.71;100429.65;106250;1262;62114;-81
2023/10/19 12:33:01;;;;;;;;;;;;;;;9.32;69.59;100426.86;106434;1260;124357;-82
2023/10/19 12:38:16;;;;;;;;;;;;;;;9.37;69.42;100420.88;106352;1259;124892;-82
2023/10/19 12:40:47;;;;;;;;;;;;;;;9.32;69.15;100415.34;106360;1265;71747;-81
2023/10/19 12:43:14;;;;;;;;;;;;;;;9.23;69.06;100414.39;106293;1262;62224;-82
2023/10/19 12:45:41;;;;;;;;;;;;;;;9.12;69.11;100411.85;106290;1262;124345;-80
2023/10/19 12:48:10;;;;;;;;;;;;;;;9.08;69.21;100412.09;105746;1266;74988;-81
2023/10/19 12:50:37;;;;;;;;;;;;;;;8.95;69.04;100409.83;105609;1267;124465;-81
2023/10/19 12:53:04;;;;;;;;;;;;;;;8.84;69.06;100405.50;105713;1263;72685;-81
2023/10/19 12:55:30;;;;;;;;;;;;;;;8.80;69.23;100399.45;105803;1267;62189;-81
2023/10/19 12:57:59;;;;;;;;;;;;;;;8.78;69.25;100397.64;105608;1270;124165;-81
2023/10/19 13:00:26;;;;;;;;;;;;;;;8.63;68.93;100395.34;105618;1266;75485;-80
2023/10/19 13:03:03;;;;;;;;;;;;;;;8.50;69.07;100395.32;105533;1267;125857;-84
2023/10/19 13:05:37;;;;;;;;;;;;;;;8.41;69.20;100395.56;106316;1261;72489;-80